Time;durP1;ratioP1;P1;durP2;ratioP2;P2;SDS_P1;SDS_P2;PMS_P1;PMS_P2;Temp;Humidity;BMP_temperature;BMP_pressure;BME280_temperature;BME280_humidity;BME280_pressure;Samples;Min_cycle;Max_cycle;Signal;HPM_P1;HPM_P2
2021/05/15 00:03:56;;;;;;;21.02;12.52;;;;;;;10.76;68.31;99578.28;8894642;32;20185;-72
2021/05/15 00:08:58;;;;;;;18.85;12.18;;;;;;;10.81;68.45;99568.78;8894246;32;20188;-72
2021/05/15 00:14:00;;;;;;;18.52;12.00;;;;;;;10.66;68.34;99567.56;8894301;32;20196;-72
2021/05/15 00:19:01;;;;;;;20.80;13.07;;;;;;;10.49;68.50;99561.09;8894091;32;20173;-72
2021/05/15 00:24:05;;;;;;;16.98;11.30;;;;;;;10.44;68.70;99557.13;8894578;32;20176;-72
2021/05/15 00:29:08;;;;;;;17.42;11.90;;;;;;;10.30;68.74;99551.22;8894235;32;20245;-72
2021/05/15 00:34:10;;;;;;;18.52;12.55;;;;;;;10.28;69.26;99550.50;8867931;32;20616;-72
2021/05/15 00:39:12;;;;;;;23.73;13.23;;;;;;;10.19;69.03;99555.91;8893890;32;20219;-72
2021/05/15 00:44:17;;;;;;;20.50;13.00;;;;;;;10.07;69.57;99542.63;8893380;32;20178;-72
2021/05/15 00:49:18;;;;;;;22.80;13.30;;;;;;;10.10;69.76;99542.34;8867963;32;20871;-72
2021/05/15 00:54:21;;;;;;;19.88;13.50;;;;;;;10.04;69.26;99534.00;8892788;32;20149;-72
2021/05/15 00:59:22;;;;;;;20.65;13.30;;;;;;;9.93;69.52;99533.16;8892154;32;20189;-72
2021/05/15 01:04:24;;;;;;;19.70;13.25;;;;;;;9.85;69.85;99533.00;8893030;32;20157;-72
2021/05/15 01:09:27;;;;;;;19.88;13.25;;;;;;;9.67;70.33;99527.44;8893520;32;20431;-72
2021/05/15 01:14:29;;;;;;;26.60;16.02;;;;;;;9.38;71.69;99531.91;8892808;32;20440;-72
2021/05/15 01:19:31;;;;;;;25.90;15.13;;;;;;;9.40;72.28;99538.00;8892198;32;20195;-72
2021/05/15 01:24:33;;;;;;;21.27;14.57;;;;;;;9.50;72.09;99520.94;8892307;32;20288;-72
2021/05/15 01:29:36;;;;;;;26.05;14.90;;;;;;;9.59;71.66;99519.25;8867041;32;20439;-72
2021/05/15 01:34:40;;;;;;;23.02;14.45;;;;;;;9.54;71.41;99515.31;8892321;32;20293;-72
2021/05/15 01:39:42;;;;;;;26.80;15.43;;;;;;;9.35;70.70;99503.59;8892374;32;20582;-72
2021/05/15 01:44:44;;;;;;;21.98;14.35;;;;;;;9.15;71.03;99493.78;8891910;32;20480;-72
2021/05/15 01:49:47;;;;;;;23.98;14.27;;;;;;;9.08;71.10;99490.81;8892453;32;20181;-72
2021/05/15 01:54:50;;;;;;;22.40;15.00;;;;;;;9.01;71.05;99481.63;8865919;32;20142;-72
2021/05/15 01:59:51;;;;;;;23.52;13.93;;;;;;;9.08;71.76;99481.91;8891467;32;20177;-72
2021/05/15 02:04:53;;;;;;;23.35;14.07;;;;;;;9.14;72.05;99482.22;8891979;32;20442;-72
2021/05/15 02:09:56;;;;;;;18.88;12.20;;;;;;;9.16;72.27;99474.03;8892609;32;20193;-71
2021/05/15 02:14:58;;;;;;;22.75;14.05;;;;;;;8.98;71.98;99484.56;8896414;32;20510;-72
2021/05/15 02:20:00;;;;;;;21.77;12.80;;;;;;;8.73;73.26;99480.53;8896929;32;21620;-72
2021/05/15 02:25:04;;;;;;;20.98;13.13;;;;;;;8.78;73.38;99478.31;8896697;32;20241;-72
2021/05/15 02:30:07;;;;;;;20.80;12.13;;;;;;;8.77;73.31;99488.16;8896177;32;20246;-72
2021/05/15 02:35:09;;;;;;;17.45;12.13;;;;;;;8.99;72.84;99480.91;8896268;32;20403;-72
2021/05/15 02:40:13;;;;;;;20.40;11.73;;;;;;;9.13;72.01;99472.47;8896073;32;20153;-72
2021/05/15 02:45:15;;;;;;;17.73;11.25;;;;;;;9.14;71.70;99473.34;8896435;32;20249;-72
2021/05/15 02:50:18;;;;;;;18.73;11.57;;;;;;;9.11;71.28;99474.47;8896483;32;20169;-72
2021/05/15 02:55:23;;;;;;;19.60;11.35;;;;;;;9.20;71.29;99472.78;8895868;32;20181;-72
2021/05/15 03:00:27;;;;;;;18.20;11.90;;;;;;;9.22;71.29;99465.47;8895615;32;20599;-72
2021/05/15 03:05:30;;;;;;;19.30;11.90;;;;;;;9.23;71.35;99464.47;8869913;32;20406;-72
2021/05/15 03:10:32;;;;;;;20.73;12.63;;;;;;;9.20;71.57;99462.06;8869888;32;20178;-72
2021/05/15 03:15:34;;;;;;;19.90;12.38;;;;;;;9.18;71.88;99454.16;8895676;32;20274;-72
2021/05/15 03:20:35;;;;;;;18.85;12.10;;;;;;;9.18;71.78;99450.63;8895326;32;20189;-72
2021/05/15 03:25:37;;;;;;;20.92;12.52;;;;;;;9.12;71.95;99454.72;8894448;32;20413;-72
2021/05/15 03:30:39;;;;;;;19.60;12.50;;;;;;;9.15;72.06;99453.59;8894797;32;20280;-72
2021/05/15 03:35:41;;;;;;;20.90;12.70;;;;;;;9.21;72.19;99450.34;8895053;32;20442;-72
2021/05/15 03:40:43;;;;;;;20.95;12.65;;;;;;;9.18;72.14;99448.81;8894872;32;20230;-72
2021/05/15 03:45:44;;;;;;;20.35;12.25;;;;;;;9.13;72.24;99451.03;8894874;32;20214;-72
2021/05/15 03:50:46;;;;;;;21.60;12.23;;;;;;;9.25;72.16;99438.38;8894668;32;20181;-72
2021/05/15 03:55:49;;;;;;;16.60;11.73;;;;;;;9.41;71.26;99441.38;8868403;32;20173;-72
2021/05/15 04:00:50;;;;;;;19.23;12.05;;;;;;;9.50;70.95;99442.38;8894242;32;21429;-71
2021/05/15 04:05:52;;;;;;;18.50;10.98;;;;;;;9.47;70.70;99438.13;8894126;32;20165;-72
2021/05/15 04:10:54;;;;;;;19.55;12.02;;;;;;;9.51;70.71;99436.84;8894194;32;20433;-72
2021/05/15 04:15:58;;;;;;;17.30;11.05;;;;;;;9.68;70.29;99419.22;8893470;32;20146;-72
2021/05/15 04:21:00;;;;;;;17.00;10.88;;;;;;;9.82;69.56;99428.66;8893501;32;20581;-72
2021/05/15 04:26:02;;;;;;;14.82;10.48;;;;;;;9.77;69.51;99428.25;8893747;32;20181;-71
2021/05/15 04:31:04;;;;;;;16.65;11.25;;;;;;;9.62;69.60;99437.69;8894070;32;20189;-72
2021/05/15 04:36:06;;;;;;;14.85;10.02;;;;;;;9.61;69.74;99439.53;8893296;32;20196;-72
2021/05/15 04:41:09;;;;;;;15.60;10.07;;;;;;;9.60;70.01;99437.84;8893531;32;20520;-72
2021/05/15 04:46:10;;;;;;;16.02;10.80;;;;;;;9.58;69.92;99441.66;8892655;32;20185;-72
2021/05/15 04:51:12;;;;;;;17.77;11.52;;;;;;;9.58;70.39;99436.31;8893285;32;20157;-72
2021/05/15 04:56:15;;;;;;;16.70;10.95;;;;;;;9.52;71.03;99445.75;8892072;32;20181;-72
2021/05/15 05:01:16;;;;;;;16.60;11.23;;;;;;;9.62;70.84;99435.84;8892493;32;20193;-72
2021/05/15 05:06:18;;;;;;;15.23;10.20;;;;;;;9.83;69.69;99435.72;8892990;32;20626;-72
2021/05/15 05:11:20;;;;;;;15.57;9.55;;;;;;;10.07;69.05;99432.63;8892276;32;20346;-72
2021/05/15 05:16:22;;;;;;;11.85;9.02;;;;;;;10.21;68.45;99434.00;8892033;32;20145;-72
2021/05/15 05:21:23;;;;;;;13.40;9.50;;;;;;;10.28;68.12;99434.25;8892607;32;20719;-72
2021/05/15 05:26:26;;;;;;;17.65;10.07;;;;;;;10.24;68.17;99436.38;8891737;32;20162;-72
2021/05/15 05:31:27;;;;;;;11.57;8.82;;;;;;;10.27;68.29;99436.09;8892034;32;20185;-72
2021/05/15 05:36:29;;;;;;;12.00;8.10;;;;;;;10.41;67.98;99445.50;8891911;32;20133;-72
2021/05/15 05:41:31;;;;;;;10.75;7.88;;;;;;;10.49;67.30;99442.94;8891920;32;20177;-71
2021/05/15 05:46:33;;;;;;;13.48;8.65;;;;;;;10.40;67.33;99451.88;8893065;32;20517;-73
2021/05/15 05:51:35;;;;;;;10.55;8.00;;;;;;;10.50;67.65;99444.63;8871645;32;20141;-72
2021/05/15 05:56:37;;;;;;;12.98;8.85;;;;;;;10.67;66.80;99445.72;8896663;32;20192;-71
2021/05/15 06:01:39;;;;;;;12.38;8.20;;;;;;;10.77;66.74;99443.81;8896677;32;20765;-72
2021/05/15 06:06:41;;;;;;;10.98;8.00;;;;;;;10.79;66.42;99447.19;8871497;32;20522;-72
2021/05/15 06:11:43;;;;;;;9.65;6.80;;;;;;;10.67;66.84;99442.16;8896931;32;20192;-72
2021/05/15 06:16:44;;;;;;;9.55;6.50;;;;;;;10.63;66.42;99430.88;8896225;32;20210;-72
2021/05/15 06:21:46;;;;;;;8.60;6.00;;;;;;;10.70;66.91;99433.84;8896465;32;20906;-72
2021/05/15 06:26:48;;;;;;;7.60;6.00;;;;;;;10.79;66.34;99431.09;8896512;32;20235;-72
2021/05/15 06:31:50;;;;;;;8.05;5.90;;;;;;;10.81;66.34;99428.28;8896205;32;20236;-72
2021/05/15 06:36:51;;;;;;;9.38;6.40;;;;;;;10.78;66.83;99432.09;8896696;32;20208;-72
2021/05/15 06:41:53;;;;;;;8.43;5.90;;;;;;;10.75;66.96;99436.91;8856219;32;20196;-72
2021/05/15 06:46:55;;;;;;;6.50;4.70;;;;;;;10.75;66.69;99434.22;8896864;32;20153;-72
2021/05/15 06:51:56;;;;;;;4.88;3.95;;;;;;;10.76;65.64;99439.44;8895820;32;20234;-72
2021/05/15 06:56:59;;;;;;;4.80;3.80;;;;;;;10.77;65.25;99435.75;8894884;32;20719;-71
2021/05/15 07:02:01;;;;;;;4.90;3.58;;;;;;;11.02;64.40;99431.50;8869437;32;20246;-72
2021/05/15 07:07:02;;;;;;;6.57;3.78;;;;;;;11.28;64.21;99436.22;8895932;32;20865;-71
2021/05/15 07:12:05;;;;;;;3.55;3.25;;;;;;;11.34;63.44;99432.06;8895764;32;20258;-71
2021/05/15 07:17:07;;;;;;;5.95;3.58;;;;;;;11.35;63.60;99428.38;8895180;32;20511;-72
2021/05/15 07:22:08;;;;;;;3.75;3.10;;;;;;;11.15;63.32;99428.50;8894773;32;21660;-72
2021/05/15 07:27:11;;;;;;;4.00;3.30;;;;;;;10.82;64.65;99424.56;8893177;32;20157;-73
2021/05/15 07:32:12;;;;;;;5.45;2.95;;;;;;;10.66;65.99;99427.91;8894829;32;21309;-71
2021/05/15 07:37:14;;;;;;;7.70;3.55;;;;;;;10.28;70.58;99424.34;8894077;32;20158;-72
2021/05/15 07:42:16;;;;;;;5.63;4.30;;;;;;;9.61;74.73;99419.94;8894047;32;20508;-72
2021/05/15 07:47:18;;;;;;;6.15;4.40;;;;;;;9.21;77.20;99421.72;8894135;32;20153;-71
2021/05/15 07:52:19;;;;;;;6.28;4.30;;;;;;;9.14;79.22;99419.75;8869212;32;20181;-71
2021/05/15 07:57:22;;;;;;;6.70;4.45;;;;;;;9.37;79.47;99420.34;8894165;32;20713;-71
2021/05/15 08:02:27;;;;;;;7.15;4.82;;;;;;;10.09;80.58;99413.66;8894059;32;20240;-71
2021/05/15 08:07:29;;;;;;;6.53;4.85;;;;;;;10.79;80.04;99420.34;8894296;32;20859;-71
2021/05/15 08:12:32;;;;;;;5.57;4.43;;;;;;;11.05;77.77;99414.25;8894338;32;20539;-72
2021/05/15 08:17:34;;;;;;;8.02;4.97;;;;;;;10.84;75.63;99407.31;8894170;32;20637;-71
2021/05/15 08:22:36;;;;;;;6.13;5.07;;;;;;;11.51;72.75;99412.41;8894368;32;20136;-71
2021/05/15 08:27:40;;;;;;;5.68;4.78;;;;;;;12.01;74.40;99403.72;8894242;32;20192;-71
2021/05/15 08:32:42;;;;;;;9.30;5.53;;;;;;;12.56;70.47;99400.75;8894484;32;20792;-71
2021/05/15 08:37:44;;;;;;;7.15;5.30;;;;;;;13.01;67.57;99394.16;8894154;32;21086;-71
2021/05/15 08:42:47;;;;;;;9.90;6.57;;;;;;;12.44;68.20;99372.38;8894042;32;20181;-72
2021/05/15 08:47:51;;;;;;;10.35;7.53;;;;;;;11.70;69.42;99385.34;8892306;32;20518;-72
2021/05/15 08:52:56;;;;;;;10.27;7.22;;;;;;;11.59;71.75;99379.38;8893525;32;20185;-72
2021/05/15 08:58:00;;;;;;;13.15;9.35;;;;;;;12.07;72.06;99370.81;8892977;32;20177;-72
2021/05/15 09:03:05;;;;;;;12.88;9.60;;;;;;;12.59;71.03;99364.56;8890232;32;20134;-72
2021/05/15 09:08:10;;;;;;;10.40;8.63;;;;;;;13.39;68.32;99356.84;8894165;32;20180;-72
2021/05/15 09:13:17;;;;;;;11.10;8.70;;;;;;;13.40;65.69;99350.44;8891487;32;20180;-72
2021/05/15 09:18:24;;;;;;;12.70;10.55;;;;;;;13.39;64.46;99347.94;8893105;32;20319;-72
2021/05/15 09:23:28;;;;;;;11.18;8.27;;;;;;;13.77;61.00;99353.63;8891445;32;20185;-72
2021/05/15 09:28:38;;;;;;;10.40;8.35;;;;;;;13.11;61.93;99344.63;8892720;32;20446;-72
2021/05/15 09:33:43;;;;;;;9.98;8.20;;;;;;;14.33;65.83;99343.72;8893485;32;20181;-72
2021/05/15 09:38:46;;;;;;;11.23;8.70;;;;;;;16.05;62.70;99335.34;8893020;32;20130;-72
2021/05/15 09:43:52;;;;;;;8.63;7.82;;;;;;;16.81;58.08;99316.16;8893220;32;20195;-72
2021/05/15 09:48:56;;;;;;;6.45;4.85;;;;;;;15.50;57.41;99323.00;8893257;32;20180;-73
2021/05/15 09:54:14;;;;;;;7.60;4.63;;;;;;;14.32;56.99;99312.34;8892921;32;20264;-73
2021/05/15 09:59:26;;;;;;;5.03;4.53;;;;;;;14.55;60.10;99293.53;8892245;32;20215;-73
2021/05/15 10:04:30;;;;;;;4.93;4.53;;;;;;;15.15;58.33;99287.41;8892922;32;20915;-73
2021/05/15 10:09:34;;;;;;;4.65;4.15;;;;;;;14.70;54.08;99290.91;8866033;32;20193;-73
2021/05/15 10:14:37;;;;;;;4.82;4.28;;;;;;;13.42;58.75;99302.56;8891920;32;20595;-73
2021/05/15 10:19:40;;;;;;;5.32;4.82;;;;;;;10.09;77.71;99311.72;8891486;32;20161;-73
2021/05/15 10:24:47;;;;;;;6.40;5.50;;;;;;;9.26;82.59;99320.31;8892509;32;20150;-72
2021/05/15 10:29:53;;;;;;;5.20;3.72;;;;;;;9.08;82.38;99323.84;8867009;32;20594;-72
2021/05/15 10:35:00;;;;;;;5.05;4.40;;;;;;;9.13;83.64;99329.63;8896358;32;20660;-71
2021/05/15 10:40:14;;;;;;;5.18;4.45;;;;;;;9.59;83.27;99328.91;8897312;32;20706;-71
2021/05/15 10:45:17;;;;;;;8.70;6.05;;;;;;;10.37;84.50;99331.38;8896686;32;20173;-71
2021/05/15 10:50:22;;;;;;;4.22;3.28;;;;;;;10.45;82.46;99336.00;8894807;32;20145;-70
2021/05/15 10:55:32;;;;;;;2.33;2.13;;;;;;;10.01;80.74;99338.44;8896192;32;20173;-70
2021/05/15 11:00:36;;;;;;;3.10;2.50;;;;;;;10.13;80.77;99337.28;8895918;32;20280;-70
2021/05/15 11:05:42;;;;;;;3.55;2.95;;;;;;;10.51;82.20;99324.69;8895085;32;20639;-70
2021/05/15 11:10:45;;;;;;;4.85;3.60;;;;;;;9.84;81.25;99316.69;8895383;32;20207;-70
2021/05/15 11:15:49;;;;;;;3.90;3.45;;;;;;;10.19;85.14;99288.38;8896013;32;20209;-71
2021/05/15 11:20:53;;;;;;;3.45;2.92;;;;;;;10.79;85.80;99275.28;8869609;32;20207;-71
2021/05/15 11:25:59;;;;;;;3.55;3.25;;;;;;;10.90;84.34;99276.06;8895065;32;20152;-71
2021/05/15 11:31:08;;;;;;;5.22;3.30;;;;;;;11.45;84.35;99292.88;8895303;32;20185;-71
2021/05/15 11:36:12;;;;;;;3.03;2.55;;;;;;;12.25;82.26;99284.59;8895353;32;20192;-71
2021/05/15 11:41:16;;;;;;;2.90;2.40;;;;;;;12.02;80.33;99289.69;8894866;32;20126;-71
2021/05/15 11:46:25;;;;;;;3.28;2.17;;;;;;;13.01;77.36;99283.63;8868223;32;20177;-70
2021/05/15 11:51:27;;;;;;;2.60;2.40;;;;;;;13.63;80.07;99258.03;8894696;32;20223;-70
2021/05/15 11:56:33;;;;;;;4.75;2.80;;;;;;;14.60;77.10;99261.41;8893376;32;20149;-70
2021/05/15 12:01:37;;;;;;;3.47;2.90;;;;;;;15.15;70.82;99254.94;8893885;32;20595;-70
2021/05/15 12:06:39;;;;;;;3.33;2.80;;;;;;;15.63;67.46;99257.41;8894253;32;20184;-70
2021/05/15 12:12:02;;;;;;;3.35;2.92;;;;;;;15.26;63.97;99227.47;8894443;32;20330;-71
2021/05/15 12:17:07;;;;;;;4.28;2.90;;;;;;;14.80;70.31;99219.38;8886366;32;21973;-71
2021/05/15 12:22:11;;;;;;;6.60;3.92;;;;;;;14.31;65.28;99208.00;8878681;32;20617;-71
2021/05/15 12:27:16;;;;;;;5.20;3.92;;;;;;;13.99;69.44;99215.25;8885549;32;20199;-71
2021/05/15 12:32:25;;;;;;;4.97;3.92;;;;;;;13.18;72.21;99216.25;8886550;32;20614;-71
2021/05/15 12:37:34;;;;;;;6.50;4.07;;;;;;;11.87;71.66;99230.25;8887062;32;20426;-71
2021/05/15 12:42:38;;;;;;;7.13;3.90;;;;;;;8.97;85.94;99223.94;8743925;32;20177;-71
2021/05/15 12:47:42;;;;;;;6.93;4.32;;;;;;;10.38;89.77;99221.16;8702380;32;20180;-71
2021/05/15 12:52:44;;;;;;;7.30;4.57;;;;;;;11.76;89.18;99225.13;8732276;32;20251;-71
2021/05/15 12:57:55;;;;;;;7.22;5.90;;;;;;;10.71;84.39;99221.50;8729600;32;20831;-71
2021/05/15 13:03:02;;;;;;;8.27;6.20;;;;;;;9.95;83.45;99237.91;8717389;32;20463;-71
2021/05/15 13:08:07;;;;;;;8.57;6.50;;;;;;;10.03;85.67;99226.47;8710507;32;20415;-71
2021/05/15 13:13:10;;;;;;;13.15;7.15;;;;;;;10.39;84.66;99224.69;8715942;32;21883;-71
2021/05/15 13:18:17;;;;;;;13.23;8.00;;;;;;;10.15;84.98;99217.22;8711418;32;20507;-71
2021/05/15 13:23:20;;;;;;;13.57;8.90;;;;;;;10.65;85.40;99219.44;8712582;32;20409;-70
2021/05/15 13:28:23;;;;;;;14.57;9.27;;;;;;;11.11;85.12;99205.88;8707642;32;20603;-71
2021/05/15 13:33:26;;;;;;;15.65;9.93;;;;;;;11.51;84.62;99202.66;8712319;32;20317;-70
2021/05/15 13:38:29;;;;;;;14.57;9.15;;;;;;;12.00;83.85;99204.75;8711087;32;20440;-70
2021/05/15 13:43:32;;;;;;;11.63;8.00;;;;;;;12.55;81.61;99197.00;8712134;32;20177;-70
2021/05/15 13:48:35;;;;;;;11.20;7.93;;;;;;;13.00;83.72;99203.81;8711984;32;20206;-70
2021/05/15 13:53:38;;;;;;;9.30;6.90;;;;;;;14.04;76.73;99195.81;8715291;32;20552;-71
2021/05/15 13:58:42;;;;;;;11.63;7.80;;;;;;;13.86;78.94;99183.41;8714327;32;21221;-70
2021/05/15 14:03:46;;;;;;;9.10;7.00;;;;;;;13.58;78.23;99180.31;8665645;32;20418;-71
2021/05/15 14:08:48;;;;;;;11.52;7.75;;;;;;;13.10;70.99;99181.22;8682984;32;20169;-70
2021/05/15 14:13:51;;;;;;;10.20;7.18;;;;;;;12.84;75.66;99171.47;8715869;32;20461;-70
2021/05/15 14:18:55;;;;;;;9.40;7.13;;;;;;;12.13;74.43;99175.53;8715527;32;20462;-71
2021/05/15 14:23:58;;;;;;;5.07;4.10;;;;;;;11.02;71.33;99202.28;8716097;32;20660;-71
2021/05/15 14:29:00;;;;;;;4.78;2.90;;;;;;;10.13;75.14;99195.06;8714940;32;20157;-71
2021/05/15 14:34:04;;;;;;;3.78;2.78;;;;;;;8.98;83.41;99173.88;8716276;32;20412;-71
2021/05/15 14:39:08;;;;;;;4.03;2.95;;;;;;;9.69;87.05;99176.06;8717372;32;20189;-71
2021/05/15 14:44:10;;;;;;;4.63;3.20;;;;;;;12.51;89.93;99157.13;8717277;32;20161;-71
2021/05/15 14:49:14;;;;;;;4.35;3.70;;;;;;;13.42;87.61;99148.00;8715493;32;20441;-71
2021/05/15 14:54:16;;;;;;;5.32;3.28;;;;;;;12.57;83.67;99138.44;8719665;32;21497;-71
2021/05/15 14:59:19;;;;;;;3.53;2.92;;;;;;;13.58;85.16;99137.16;8720073;32;20885;-71
2021/05/15 15:04:23;;;;;;;4.85;3.60;;;;;;;14.14;81.87;99126.25;8721774;32;20921;-72
2021/05/15 15:09:26;;;;;;;5.20;3.40;;;;;;;14.98;81.34;99116.34;8691936;32;21803;-72
2021/05/15 15:14:29;;;;;;;5.75;3.92;;;;;;;14.92;76.80;99113.50;8714781;32;20462;-72
2021/05/15 15:19:36;;;;;;;4.20;3.60;;;;;;;14.82;75.60;99097.56;8709844;32;21100;-72
2021/05/15 15:24:38;;;;;;;4.75;3.28;;;;;;;16.09;77.02;99092.88;8710430;32;20157;-72
2021/05/15 15:29:41;;;;;;;5.03;3.50;;;;;;;16.97;73.33;99082.66;8711873;32;20619;-72
2021/05/15 15:34:45;;;;;;;5.03;3.45;;;;;;;17.81;76.04;99083.59;8713304;32;21088;-72
2021/05/15 15:39:48;;;;;;;5.50;4.20;;;;;;;17.51;65.19;99075.72;8710659;32;20423;-72
2021/05/15 15:44:50;;;;;;;4.18;3.22;;;;;;;16.54;60.26;99069.19;8712066;32;20145;-73
2021/05/15 15:49:54;;;;;;;5.47;3.90;;;;;;;17.75;69.23;99071.66;8715895;32;20855;-72
2021/05/15 15:54:57;;;;;;;3.90;3.30;;;;;;;19.29;70.00;99069.97;8719792;32;20185;-72
2021/05/15 15:59:59;;;;;;;4.20;3.80;;;;;;;18.14;60.73;99073.69;8720894;32;20729;-72
2021/05/15 16:05:17;;;;;;;3.95;3.53;;;;;;;16.80;58.49;99073.16;8724864;32;20430;-73
2021/05/15 16:10:19;;;;;;;3.65;3.25;;;;;;;16.91;59.59;99075.31;8732525;32;20616;-72
2021/05/15 16:15:22;;;;;;;2.58;2.05;;;;;;;16.44;57.08;99068.66;8722733;32;20408;-72
2021/05/15 16:20:27;;;;;;;2.58;1.92;;;;;;;15.95;56.19;99068.56;8721529;32;20181;-72
2021/05/15 16:25:31;;;;;;;2.15;1.70;;;;;;;16.16;61.84;99074.00;8734091;32;20535;-73
2021/05/15 16:30:34;;;;;;;1.90;1.80;;;;;;;16.25;53.27;99072.00;8733151;32;20184;-73
2021/05/15 16:35:44;;;;;;;1.92;1.70;;;;;;;15.41;57.15;99064.34;8732404;32;20237;-72
2021/05/15 16:40:47;;;;;;;2.90;2.25;;;;;;;17.36;52.24;99064.16;8722293;32;20427;-72
2021/05/15 16:45:50;;;;;;;1.90;1.77;;;;;;;19.26;44.73;99049.44;8717359;32;20545;-72
2021/05/15 16:50:54;;;;;;;2.53;1.58;;;;;;;22.36;38.13;99053.53;8719214;32;20680;-72
2021/05/15 16:55:56;;;;;;;1.63;1.20;;;;;;;20.17;40.73;99045.72;8730809;32;20150;-73
2021/05/15 17:01:00;;;;;;;1.27;1.17;;;;;;;20.44;44.94;99043.69;8707524;32;20404;-73
2021/05/15 17:06:05;;;;;;;0.93;0.93;;;;;;;21.80;36.37;99039.19;8733695;32;20509;-73
2021/05/15 17:11:09;;;;;;;1.50;1.23;;;;;;;16.64;46.45;99043.59;8731023;32;20475;-73
2021/05/15 17:16:12;;;;;;;2.13;1.30;;;;;;;14.78;48.19;99029.53;8722437;32;20168;-73
2021/05/15 17:21:20;;;;;;;2.03;1.20;;;;;;;13.98;51.61;99031.84;8719966;32;20416;-71
2021/05/15 17:26:23;;;;;;;1.92;1.15;;;;;;;13.84;52.61;99026.19;8694081;32;20230;-72
2021/05/15 17:31:26;;;;;;;1.30;1.20;;;;;;;13.61;52.92;99025.34;8719170;32;21021;-72
2021/05/15 17:36:30;;;;;;;1.40;1.20;;;;;;;13.58;53.89;99025.69;8716490;32;20949;-72
2021/05/15 17:41:33;;;;;;;1.17;1.08;;;;;;;13.43;55.31;99026.41;8717322;32;21033;-72
2021/05/15 17:46:35;;;;;;;1.67;1.52;;;;;;;13.32;59.66;99021.38;8721258;32;20685;-72
2021/05/15 17:51:39;;;;;;;1.30;1.20;;;;;;;13.32;63.03;99018.69;8723567;32;20142;-73
2021/05/15 17:56:42;;;;;;;1.40;1.30;;;;;;;12.91;63.08;99023.38;8722158;32;20415;-72
2021/05/15 18:01:45;;;;;;;1.65;1.50;;;;;;;11.99;63.88;99045.13;8720731;32;20438;-72
2021/05/15 18:06:49;;;;;;;1.25;1.15;;;;;;;9.70;75.95;99047.19;8722634;32;21035;-72
2021/05/15 18:11:51;;;;;;;3.25;1.35;;;;;;;8.81;80.24;99045.09;8727234;32;20164;-73
2021/05/15 18:16:54;;;;;;;1.30;1.20;;;;;;;8.88;81.64;99034.63;8723673;32;20431;-72
2021/05/15 18:21:59;;;;;;;1.63;1.10;;;;;;;9.23;82.47;99035.75;8721938;32;20405;-72
2021/05/15 18:27:03;;;;;;;1.50;1.40;;;;;;;9.41;81.84;99041.19;8722756;32;20142;-71
2021/05/15 18:32:06;;;;;;;1.55;1.45;;;;;;;9.60;82.92;99032.16;8720050;32;20234;-72
2021/05/15 18:37:09;;;;;;;1.67;1.58;;;;;;;9.84;82.89;99045.81;8719096;32;20142;-72
2021/05/15 18:42:12;;;;;;;3.70;1.83;;;;;;;10.09;82.99;99038.91;8696093;32;21271;-72
2021/05/15 18:47:14;;;;;;;3.28;2.10;;;;;;;10.21;82.93;99036.81;8720491;32;20181;-73
2021/05/15 18:52:18;;;;;;;3.80;2.40;;;;;;;10.27;82.63;99030.00;8720993;32;20833;-73
2021/05/15 18:57:21;;;;;;;5.65;2.97;;;;;;;10.34;83.10;99037.28;8719339;32;21089;-70
2021/05/15 19:02:23;;;;;;;4.35;2.55;;;;;;;10.41;83.28;99047.38;8719987;32;20185;-71
2021/05/15 19:07:27;;;;;;;4.45;2.80;;;;;;;10.32;82.99;99046.47;8719750;32;20441;-71
2021/05/15 19:12:30;;;;;;;2.30;2.10;;;;;;;10.27;82.84;99054.97;8721709;32;21077;-71
2021/05/15 19:17:33;;;;;;;3.00;2.45;;;;;;;10.20;83.24;99045.84;8721482;32;20196;-71
2021/05/15 19:22:36;;;;;;;3.30;2.40;;;;;;;10.27;83.37;99054.16;8718298;32;20146;-72
2021/05/15 19:27:39;;;;;;;2.88;2.55;;;;;;;10.31;83.24;99056.38;8716373;32;20435;-73
2021/05/15 19:32:42;;;;;;;3.83;2.60;;;;;;;10.30;83.43;99054.66;8713468;32;20242;-72
2021/05/15 19:37:46;;;;;;;5.85;3.30;;;;;;;10.28;83.41;99059.34;8716884;32;20904;-72
2021/05/15 19:42:49;;;;;;;3.85;3.33;;;;;;;10.26;83.08;99050.63;8715755;32;21711;-72
2021/05/15 19:47:54;;;;;;;4.95;3.40;;;;;;;10.40;83.74;99041.19;8718071;32;20872;-73
2021/05/15 19:53:04;;;;;;;3.50;2.85;;;;;;;10.41;83.35;99042.00;8713379;32;20620;-72
2021/05/15 19:58:07;;;;;;;4.25;3.45;;;;;;;10.36;83.33;99034.41;8721015;32;20150;-72
2021/05/15 20:03:09;;;;;;;5.75;3.53;;;;;;;10.27;83.41;99038.03;8724052;32;20215;-73
2021/05/15 20:08:13;;;;;;;6.80;4.03;;;;;;;10.33;83.64;99034.72;8725276;32;20421;-72
2021/05/15 20:13:17;;;;;;;3.72;3.08;;;;;;;10.29;83.66;99033.38;8733882;32;21351;-72
2021/05/15 20:18:20;;;;;;;4.18;3.25;;;;;;;10.27;83.97;99033.50;8693304;32;20150;-72
2021/05/15 20:23:23;;;;;;;4.75;3.10;;;;;;;10.29;83.91;99030.69;8718451;32;20169;-72
2021/05/15 20:28:29;;;;;;;3.83;3.30;;;;;;;10.31;83.61;99034.03;8719445;32;21177;-72
2021/05/15 20:33:32;;;;;;;5.15;3.75;;;;;;;10.36;83.95;99029.06;8720717;32;20406;-72
2021/05/15 20:38:35;;;;;;;6.50;3.45;;;;;;;10.38;83.71;99035.13;8719549;32;20180;-71
2021/05/15 20:43:38;;;;;;;4.72;3.17;;;;;;;10.37;83.70;99022.69;8720254;32;20438;-71
2021/05/15 20:48:41;;;;;;;4.40;3.20;;;;;;;10.35;83.83;99030.91;8716523;32;20452;-72
2021/05/15 20:53:44;;;;;;;3.50;3.20;;;;;;;10.35;83.48;99030.06;8690153;32;20248;-71
2021/05/15 20:58:47;;;;;;;3.47;2.97;;;;;;;10.36;83.32;99027.19;8689512;32;20419;-72
2021/05/15 21:03:51;;;;;;;5.30;3.10;;;;;;;10.26;83.26;99026.47;8714172;32;20403;-73
2021/05/15 21:08:55;;;;;;;4.15;3.35;;;;;;;10.23;83.42;99025.91;8714190;32;20411;-72
2021/05/15 21:13:58;;;;;;;9.27;3.55;;;;;;;10.20;83.30;99027.06;8714710;32;20501;-72
2021/05/15 21:19:04;;;;;;;5.25;3.28;;;;;;;10.14;83.13;99023.16;8715807;32;20152;-73
2021/05/15 21:24:09;;;;;;;4.10;3.15;;;;;;;10.13;83.28;99021.50;8715105;32;20511;-73
2021/05/15 21:29:12;;;;;;;3.97;3.10;;;;;;;10.22;83.52;99024.25;8713688;32;20832;-73
2021/05/15 21:34:14;;;;;;;3.40;3.08;;;;;;;10.18;83.56;99018.34;8713587;32;20198;-73
2021/05/15 21:39:18;;;;;;;3.78;3.38;;;;;;;10.08;83.30;99013.06;8687199;32;22601;-73
2021/05/15 21:44:20;;;;;;;5.80;3.40;;;;;;;10.07;83.43;99015.91;8713251;32;20561;-73
2021/05/15 21:49:23;;;;;;;4.05;3.30;;;;;;;10.14;83.69;99008.91;8717432;32;20425;-73
2021/05/15 21:54:26;;;;;;;4.30;3.90;;;;;;;10.05;83.33;99001.81;8718544;32;20977;-73
2021/05/15 21:59:29;;;;;;;5.82;4.22;;;;;;;9.98;83.50;99003.41;8716497;32;20419;-73
2021/05/15 22:04:32;;;;;;;4.72;3.38;;;;;;;9.94;83.30;98994.84;8724385;32;20454;-73
2021/05/15 22:09:35;;;;;;;6.05;3.80;;;;;;;9.85;83.44;98998.41;8719841;32;20157;-70
2021/05/15 22:14:39;;;;;;;8.82;3.90;;;;;;;9.90;83.40;99004.16;8716644;32;20457;-73
2021/05/15 22:19:41;;;;;;;4.18;3.60;;;;;;;9.85;83.11;98995.75;8716612;32;20153;-73
2021/05/15 22:24:45;;;;;;;4.18;3.70;;;;;;;9.85;83.27;98985.84;8733474;32;20427;-73
2021/05/15 22:29:47;;;;;;;3.70;3.40;;;;;;;9.84;83.28;99000.22;8738027;32;20831;-73
2021/05/15 22:34:50;;;;;;;6.03;3.80;;;;;;;9.81;83.53;98994.34;8740766;32;21150;-73
2021/05/15 22:39:53;;;;;;;7.00;3.60;;;;;;;9.75;83.16;98995.78;8737811;32;20233;-73
2021/05/15 22:44:56;;;;;;;4.75;3.03;;;;;;;9.69;82.50;98989.22;8737525;32;20950;-73
2021/05/15 22:49:58;;;;;;;4.15;3.25;;;;;;;9.62;82.57;98998.84;8737227;32;20750;-73
2021/05/15 22:55:04;;;;;;;5.35;3.35;;;;;;;9.51;82.12;98997.22;8740633;32;20153;-73
2021/05/15 23:00:10;;;;;;;4.80;3.35;;;;;;;9.48;82.68;98994.84;8742101;32;20154;-73
2021/05/15 23:05:13;;;;;;;5.50;4.13;;;;;;;9.31;82.33;98997.50;8744081;32;20271;-73
2021/05/15 23:10:18;;;;;;;5.25;3.67;;;;;;;9.28;82.40;99002.16;8739953;32;20548;-73
2021/05/15 23:15:21;;;;;;;6.22;3.58;;;;;;;9.22;82.36;99000.09;8738728;32;20460;-73
2021/05/15 23:20:23;;;;;;;4.75;3.30;;;;;;;9.09;81.99;99002.28;8735949;32;20709;-73
2021/05/15 23:25:28;;;;;;;4.25;3.60;;;;;;;9.05;81.85;99011.59;8734978;32;20244;-73
2021/05/15 23:30:32;;;;;;;4.45;3.72;;;;;;;8.92;81.53;98998.53;8733631;32;20193;-73
2021/05/15 23:35:35;;;;;;;5.63;3.88;;;;;;;9.16;81.54;98994.47;8735149;32;20705;-73
2021/05/15 23:40:38;;;;;;;5.72;3.95;;;;;;;9.21;81.56;98993.03;8739813;32;20213;-73
2021/05/15 23:45:41;;;;;;;5.00;4.45;;;;;;;9.18;81.65;98993.34;8739161;32;20412;-72